Time;durP1;ratioP1;P1;durP2;ratioP2;P2;SDS_P1;SDS_P2;PMS_P1;PMS_P2;Temp;Humidity;BMP_temperature;BMP_pressure;BME280_temperature;BME280_humidity;BME280_pressure;Samples;Min_cycle;Max_cycle;Signal;HPM_P1;HPM_P2
2022/06/23 00:01:47;;;;;;;4.20;3.05;;;;;;;13.92;100.00;98662.19;4429189;32;20467;-69
2022/06/23 00:04:15;;;;;;;5.62;3.37;;;;;;;13.64;100.00;98620.44;4421741;32;20077;-69
2022/06/23 00:06:47;;;;;;;6.43;2.92;;;;;;;13.81;100.00;98663.34;4416797;32;20384;-68
2022/06/23 00:09:28;;;;;;;4.57;3.58;;;;;;;13.78;100.00;98659.31;4416833;32;20101;-68
2022/06/23 00:11:55;;;;;;;5.93;3.28;;;;;;;13.77;100.00;98663.12;4416350;32;20811;-68
2022/06/23 00:14:21;;;;;;;8.05;4.10;;;;;;;13.65;100.00;98667.25;4416400;32;20038;-68
2022/06/23 00:16:46;;;;;;;10.02;2.95;;;;;;;13.60;100.00;98657.25;4416665;32;20425;-68
2022/06/23 00:19:14;;;;;;;3.37;3.08;;;;;;;13.64;100.00;98674.53;4415681;32;20109;-69
2022/06/23 00:21:48;;;;;;;3.45;3.12;;;;;;;13.56;100.00;98646.19;4410329;32;20112;-69
2022/06/23 00:24:19;;;;;;;3.83;3.17;;;;;;;13.65;100.00;98659.94;4432031;32;20102;-69
2022/06/23 00:26:45;;;;;;;4.12;3.22;;;;;;;13.67;100.00;98663.16;4424928;32;20188;-69
2022/06/23 00:29:15;;;;;;;3.83;2.75;;;;;;;13.22;100.00;98600.06;4416383;32;20050;-69
2022/06/23 00:31:45;;;;;;;4.15;3.35;;;;;;;13.69;100.00;98661.00;4415204;32;20115;-69
2022/06/23 00:35:02;;;;;;;9.05;3.10;;;;;;;13.70;100.00;98657.19;4416792;32;20038;-69
2022/06/23 00:37:29;;;;;;;5.50;3.08;;;;;;;13.74;100.00;98663.66;4372127;32;20103;-69
2022/06/23 00:40:01;;;;;;;4.90;3.30;;;;;;;13.41;100.00;98622.72;4415638;32;20047;-69
2022/06/23 00:42:58;;;;;;;4.15;2.78;;;;;;;13.35;100.00;98591.37;4415771;32;20089;-69
2022/06/23 00:45:32;;;;;;;3.37;2.87;;;;;;;13.84;100.00;98662.00;4420175;32;20364;-69
2022/06/23 00:48:06;;;;;;;7.15;3.28;;;;;;;13.85;100.00;98669.84;4431806;32;20041;-69
2022/06/23 00:50:39;;;;;;;2.90;2.58;;;;;;;13.86;100.00;98659.81;4425465;32;20061;-69
2022/06/23 00:53:11;;;;;;;7.57;3.58;;;;;;;13.55;100.00;98632.94;4410808;32;20125;-69
2022/06/23 00:55:40;;;;;;;7.65;2.70;;;;;;;13.84;100.00;98667.41;4416052;32;20442;-68
2022/06/23 00:58:15;;;;;;;5.68;3.00;;;;;;;13.62;100.00;98631.56;4413219;32;20494;-69
2022/06/23 01:00:42;;;;;;;3.70;3.10;;;;;;;13.86;100.00;98665.22;4428062;32;20886;-69
2022/06/23 01:03:07;;;;;;;4.57;3.53;;;;;;;13.77;100.00;98657.69;4431857;32;20182;-68
2022/06/23 01:05:46;;;;;;;4.78;3.20;;;;;;;13.49;100.00;98629.44;4431289;32;20038;-68
2022/06/23 01:08:29;;;;;;;5.72;3.65;;;;;;;13.58;100.00;98626.97;4416800;32;20073;-70
2022/06/23 01:11:16;;;;;;;4.57;2.95;;;;;;;13.80;100.00;98661.72;4417076;32;20421;-69
2022/06/23 01:13:49;;;;;;;4.70;3.10;;;;;;;13.79;100.00;98665.53;4430689;32;20038;-70
2022/06/23 01:16:22;;;;;;;4.37;3.25;;;;;;;13.66;100.00;98642.63;4416606;32;20068;-68
2022/06/23 01:19:06;;;;;;;3.72;3.28;;;;;;;13.46;100.00;98624.59;4416125;32;20034;-67
2022/06/23 01:21:40;;;;;;;8.15;3.53;;;;;;;13.70;100.00;98665.31;4415464;32;20456;-69
2022/06/23 01:24:38;;;;;;;5.90;3.35;;;;;;;13.73;100.00;98675.56;4425446;32;20072;-67
2022/06/23 01:27:07;;;;;;;6.43;3.50;;;;;;;13.43;100.00;98635.97;4429920;32;20048;-70
2022/06/23 01:30:18;;;;;;;3.70;2.85;;;;;;;13.55;100.00;98673.53;4430753;32;20791;-68
2022/06/23 01:32:48;;;;;;;9.38;4.20;;;;;;;13.36;100.00;98636.28;4381828;32;20059;-69
2022/06/23 01:35:25;;;;;;;7.78;3.55;;;;;;;13.30;100.00;98626.53;4381330;32;20436;-68
2022/06/23 01:38:43;;;;;;;8.05;3.78;;;;;;;13.54;100.00;98680.00;4368357;32;20082;-69
2022/06/23 01:41:38;;;;;;;4.47;3.58;;;;;;;13.53;100.00;98683.78;4363883;32;20051;-68
2022/06/23 01:44:11;;;;;;;9.95;3.83;;;;;;;13.48;100.00;98675.69;4375972;32;20441;-69
2022/06/23 01:46:40;;;;;;;4.47;3.60;;;;;;;13.38;100.00;98671.16;4368579;32;20051;-69
2022/06/23 01:49:25;;;;;;;6.57;4.12;;;;;;;13.17;100.00;98638.75;4368096;32;20062;-69
2022/06/23 01:51:54;;;;;;;6.43;3.80;;;;;;;13.53;100.00;98678.38;4374593;32;20066;-68
2022/06/23 01:54:20;;;;;;;11.63;4.22;;;;;;;13.51;100.00;98685.97;4386492;32;20396;-69
2022/06/23 01:56:51;;;;;;;6.90;3.72;;;;;;;13.43;100.00;98679.22;4386168;32;20090;-68
2022/06/23 01:59:26;;;;;;;5.60;4.25;;;;;;;13.43;100.00;98679.22;4382100;32;20105;-69
2022/06/23 02:02:03;;;;;;;10.85;4.20;;;;;;;13.48;100.00;98686.50;4381112;32;20120;-68
2022/06/23 02:05:07;;;;;;;5.53;4.40;;;;;;;13.09;100.00;98647.44;4371253;32;20135;-68
2022/06/23 02:07:46;;;;;;;4.15;3.72;;;;;;;13.33;100.00;98682.78;4422921;32;20034;-68
2022/06/23 02:10:22;;;;;;;4.53;4.00;;;;;;;13.05;100.00;98649.06;4430429;32;20158;-68
2022/06/23 02:12:54;;;;;;;10.15;3.85;;;;;;;13.24;100.00;98687.09;4432284;32;20405;-68
2022/06/23 02:15:35;;;;;;;7.80;3.62;;;;;;;13.16;100.00;98690.37;4433912;32;20042;-69
2022/06/23 02:18:32;;;;;;;10.98;4.43;;;;;;;13.22;100.00;98689.28;4434049;32;20058;-68
2022/06/23 02:20:58;;;;;;;4.32;3.55;;;;;;;13.23;100.00;98688.22;4426028;32;20046;-69
2022/06/23 02:23:56;;;;;;;6.05;3.65;;;;;;;13.10;100.00;98692.31;4422297;32;20104;-68
2022/06/23 02:26:41;;;;;;;9.52;4.10;;;;;;;13.22;100.00;98694.69;4415352;32;20094;-68
2022/06/23 02:29:27;;;;;;;5.22;3.80;;;;;;;13.12;100.00;98679.31;4420218;32;20053;-69
2022/06/23 02:32:02;;;;;;;7.93;4.87;;;;;;;13.21;100.00;98682.25;4418341;32;20039;-68
2022/06/23 02:34:40;;;;;;;8.90;4.65;;;;;;;13.11;100.00;98682.28;4387271;32;20097;-69
2022/06/23 02:37:44;;;;;;;5.72;4.37;;;;;;;13.17;100.00;98702.81;4402879;32;20403;-69
2022/06/23 02:40:28;;;;;;;5.60;3.80;;;;;;;13.13;100.00;98705.28;4326628;33;20067;-69
2022/06/23 02:43:25;;;;;;;10.27;4.12;;;;;;;13.15;100.00;98710.41;4325804;33;20098;-69
2022/06/23 02:46:04;;;;;;;8.93;4.25;;;;;;;13.12;100.00;98710.97;4324937;33;20056;-68
2022/06/23 02:49:03;;;;;;;5.12;3.87;;;;;;;13.03;100.00;98708.78;4326325;33;20087;-69
2022/06/23 02:51:41;;;;;;;10.52;3.55;;;;;;;13.04;100.00;98715.81;4340917;33;20055;-69
2022/06/23 02:54:29;;;;;;;13.52;4.50;;;;;;;12.80;100.00;98666.16;4340665;33;20064;-70
2022/06/23 02:57:19;;;;;;;8.57;3.90;;;;;;;13.07;100.00;98717.97;4340382;33;20060;-69
2022/06/23 02:59:51;;;;;;;5.30;3.42;;;;;;;13.00;100.00;98717.47;4340577;33;20066;-68
2022/06/23 03:02:39;;;;;;;8.93;4.07;;;;;;;12.99;100.00;98713.13;4338986;33;20452;-69
2022/06/23 03:05:22;;;;;;;9.45;3.90;;;;;;;13.08;100.00;98716.91;4340991;33;20070;-68
2022/06/23 03:08:20;;;;;;;7.18;3.83;;;;;;;13.04;100.00;98705.00;4338363;33;20084;-69
2022/06/23 03:10:55;;;;;;;4.78;3.80;;;;;;;13.16;100.00;98728.22;4356016;32;20440;-69
2022/06/23 03:13:33;;;;;;;8.13;3.10;;;;;;;13.16;100.00;98723.66;4400693;32;20076;-68
2022/06/23 03:16:19;;;;;;;5.95;4.22;;;;;;;13.14;100.00;98730.41;4418164;32;20097;-69
2022/06/23 03:18:54;;;;;;;5.80;3.12;;;;;;;13.14;100.00;98725.78;4422498;32;20075;-69
2022/06/23 03:21:28;;;;;;;4.07;3.00;;;;;;;13.16;100.00;98733.63;4433088;32;20053;-69
2022/06/23 03:24:10;;;;;;;4.03;3.00;;;;;;;13.15;100.00;98732.84;4432554;32;20041;-68
2022/06/23 03:26:47;;;;;;;5.40;3.17;;;;;;;13.06;100.00;98713.66;4415170;32;20046;-68
2022/06/23 03:29:40;;;;;;;4.55;3.15;;;;;;;13.29;100.00;98743.06;4417202;32;20101;-68
2022/06/23 03:32:19;;;;;;;5.45;3.25;;;;;;;13.38;100.00;98741.44;4415495;32;20039;-69
2022/06/23 03:34:54;;;;;;;4.25;3.78;;;;;;;13.18;100.00;98704.44;4424726;32;20067;-70
2022/06/23 03:37:32;;;;;;;6.22;3.70;;;;;;;13.24;100.00;98706.03;4432240;32;20089;-70
2022/06/23 03:43:30;;;;;;;6.18;3.95;;;;;;;13.65;100.00;98751.91;4416842;32;20061;-70
2022/06/23 03:46:26;;;;;;;6.95;2.58;;;;;;;13.78;100.00;98762.12;4390613;32;20352;-69
2022/06/23 03:49:08;;;;;;;8.27;3.37;;;;;;;13.88;100.00;98763.16;4424197;32;20439;-70
2022/06/23 03:51:40;;;;;;;16.50;3.22;;;;;;;13.88;100.00;98755.88;4417479;32;20042;-69
2022/06/23 03:54:13;;;;;;;12.43;3.95;;;;;;;13.98;100.00;98765.84;4416897;32;20083;-69
2022/06/23 03:57:02;;;;;;;4.22;3.42;;;;;;;14.19;100.00;98771.16;4416891;32;20093;-69
2022/06/23 03:59:41;;;;;;;13.85;3.70;;;;;;;14.25;100.00;98780.84;4416709;32;20043;-69
2022/06/23 04:02:21;;;;;;;9.65;4.37;;;;;;;14.31;100.00;98779.72;4415853;32;20114;-69
2022/06/23 04:04:53;;;;;;;8.77;3.75;;;;;;;14.26;100.00;98755.38;4403919;32;20061;-70
2022/06/23 04:07:28;;;;;;;4.85;3.80;;;;;;;14.40;100.00;98780.75;4401875;32;20080;-69
2022/06/23 04:10:12;;;;;;;5.35;3.50;;;;;;;14.57;100.00;98784.97;4417748;32;20283;-70
2022/06/23 04:12:44;;;;;;;18.25;9.85;;;;;;;14.68;100.00;98784.66;4415840;32;20134;-70
2022/06/23 04:15:17;;;;;;;9.57;4.15;;;;;;;14.52;100.00;98747.91;4414937;32;20046;-70
2022/06/23 04:17:57;;;;;;;7.18;4.22;;;;;;;14.86;100.00;98795.91;4417069;32;20054;-69
2022/06/23 04:20:41;;;;;;;9.18;3.50;;;;;;;15.01;100.00;98786.81;4416842;32;20069;-70
2022/06/23 04:23:28;;;;;;;6.25;3.00;;;;;;;15.15;100.00;98800.53;4420559;32;20068;-69
2022/06/23 04:26:01;;;;;;;5.40;3.47;;;;;;;15.06;100.00;98759.66;4416182;32;20043;-69
2022/06/23 04:28:41;;;;;;;10.50;4.05;;;;;;;15.44;100.00;98800.50;4415481;32;20085;-69
2022/06/23 04:31:08;;;;;;;8.10;2.87;;;;;;;15.52;100.00;98797.16;4414933;32;20042;-69
2022/06/23 04:33:39;;;;;;;6.93;3.65;;;;;;;15.34;100.00;98773.50;4428880;32;20042;-69
2022/06/23 04:36:05;;;;;;;4.55;3.00;;;;;;;15.80;100.00;98802.88;4403089;32;20065;-70
2022/06/23 04:38:38;;;;;;;7.47;3.83;;;;;;;15.82;100.00;98805.31;4413256;32;20081;-69
2022/06/23 04:41:16;;;;;;;6.55;3.58;;;;;;;15.90;100.00;98807.38;4416675;32;20046;-70
2022/06/23 04:43:52;;;;;;;5.65;3.42;;;;;;;15.90;100.00;98808.16;4414540;32;20401;-70
2022/06/23 04:46:40;;;;;;;7.90;4.45;;;;;;;15.93;100.00;98796.72;4421199;32;20042;-69
2022/06/23 04:49:23;;;;;;;2.58;2.37;;;;;;;16.14;100.00;98808.12;4431486;32;20056;-69
2022/06/23 04:52:01;;;;;;;2.75;2.15;;;;;;;16.23;100.00;98805.59;4431942;32;20046;-69
2022/06/23 04:54:48;;;;;;;2.70;2.37;;;;;;;16.27;100.00;98812.03;4431596;32;20317;-70
2022/06/23 04:57:27;;;;;;;4.53;2.33;;;;;;;16.16;100.00;98783.41;4410234;32;20989;-69
2022/06/23 04:59:56;;;;;;;2.37;2.17;;;;;;;16.43;100.00;98825.41;4416634;32;20061;-70
2022/06/23 05:02:51;;;;;;;5.10;1.95;;;;;;;16.48;100.00;98825.34;4416044;32;20034;-70
2022/06/23 05:05:22;;;;;;;3.92;2.65;;;;;;;16.57;100.00;98825.50;4412485;32;20069;-69
2022/06/23 05:07:58;;;;;;;2.58;2.37;;;;;;;16.40;100.00;98798.84;4427903;32;20045;-69
2022/06/23 05:10:34;;;;;;;3.83;2.30;;;;;;;16.66;100.00;98835.41;4422530;32;20042;-69
2022/06/23 05:13:05;;;;;;;3.00;1.95;;;;;;;16.70;100.00;98841.91;4415409;32;20076;-69
2022/06/23 05:15:36;;;;;;;4.62;2.42;;;;;;;16.81;100.00;98841.72;4415451;32;20058;-70
2022/06/23 05:18:15;;;;;;;6.32;3.10;;;;;;;16.84;100.00;98830.25;4412311;32;20050;-69
2022/06/23 05:20:47;;;;;;;2.47;2.12;;;;;;;17.02;100.00;98843.06;4419570;32;20074;-69
2022/06/23 05:23:27;;;;;;;2.55;2.37;;;;;;;17.10;100.00;98848.91;4417793;32;20065;-71
2022/06/23 05:26:02;;;;;;;7.12;2.35;;;;;;;17.17;100.00;98843.91;4415683;32;20054;-69
2022/06/23 05:28:32;;;;;;;7.70;2.30;;;;;;;16.99;100.00;98811.03;4414633;32;20046;-69
2022/06/23 05:31:03;;;;;;;3.67;1.75;;;;;;;17.11;100.00;98817.91;4413714;32;20046;-70
2022/06/23 05:33:35;;;;;;;3.65;2.33;;;;;;;17.35;100.00;98855.84;4414424;32;20041;-69
2022/06/23 05:36:05;;;;;;;2.83;2.53;;;;;;;17.38;100.00;98864.22;4413862;32;20042;-69
2022/06/23 05:38:45;;;;;;;3.35;1.92;;;;;;;17.45;100.00;98866.53;4412714;32;20084;-70
2022/06/23 05:41:34;;;;;;;6.47;2.12;;;;;;;17.42;100.00;98840.75;4415006;32;20073;-70
2022/06/23 05:44:04;;;;;;;10.07;2.42;;;;;;;17.55;100.00;98851.94;4415098;32;20076;-70
2022/06/23 05:46:33;;;;;;;3.80;2.08;;;;;;;17.64;100.00;98873.84;4413576;32;20050;-70
2022/06/23 05:49:04;;;;;;;4.05;2.40;;;;;;;17.47;100.00;98828.13;4400597;32;20050;-70
2022/06/23 05:51:40;;;;;;;2.35;2.12;;;;;;;17.78;100.00;98864.56;4397422;32;20051;-70
2022/06/23 05:54:15;;;;;;;2.00;1.83;;;;;;;17.87;100.00;98867.44;4399002;32;20047;-72
2022/06/23 05:56:50;;;;;;;2.20;1.65;;;;;;;17.94;100.00;98862.41;4400190;32;20326;-69
2022/06/23 05:59:33;;;;;;;5.20;2.75;;;;;;;18.00;100.00;98856.84;4405053;32;20051;-69
2022/06/23 06:02:10;;;;;;;6.65;2.00;;;;;;;18.12;100.00;98868.84;4412975;32;20110;-69
2022/06/23 06:04:43;;;;;;;1.90;1.80;;;;;;;17.95;100.00;98836.00;4415487;32;20046;-70
2022/06/23 06:07:14;;;;;;;5.15;2.00;;;;;;;18.23;100.00;98874.91;4415891;32;20034;-69
2022/06/23 06:09:40;;;;;;;2.50;2.15;;;;;;;18.29;100.00;98870.16;4413387;32;20089;-69
2022/06/23 06:12:17;;;;;;;6.18;1.98;;;;;;;18.32;100.00;98866.84;4429532;32;20137;-69
2022/06/23 06:14:48;;;;;;;4.55;1.77;;;;;;;18.48;100.00;98881.75;4429706;32;20038;-69
2022/06/23 06:17:23;;;;;;;5.25;2.35;;;;;;;18.59;100.00;98879.59;4422948;32;20042;-72
2022/06/23 06:19:51;;;;;;;2.40;2.20;;;;;;;18.59;100.00;98876.88;4415492;32;20057;-70
2022/06/23 06:22:42;;;;;;;12.90;2.08;;;;;;;18.46;100.00;98850.44;4415291;32;20042;-70
2022/06/23 06:25:19;;;;;;;3.03;1.80;;;;;;;18.74;100.00;98888.56;4415382;32;20050;-70
2022/06/23 06:27:45;;;;;;;7.95;2.67;;;;;;;18.92;100.00;98892.25;4414090;32;20105;-69
2022/06/23 06:30:19;;;;;;;16.00;3.45;;;;;;;19.05;100.00;98888.66;4415360;32;20038;-70
2022/06/23 06:32:46;;;;;;;8.13;3.15;;;;;;;19.21;100.00;98892.66;4412778;32;20034;-71
2022/06/23 06:35:35;;;;;;;6.55;2.53;;;;;;;19.33;100.00;98904.94;4416245;32;20077;-70
2022/06/23 06:38:05;;;;;;;9.68;2.28;;;;;;;19.26;100.00;98860.88;4414101;32;20169;-69
2022/06/23 06:40:33;;;;;;;4.62;1.98;;;;;;;19.44;100.00;98900.03;4417069;32;20049;-69
2022/06/23 06:43:04;;;;;;;4.07;2.17;;;;;;;19.39;100.00;98881.88;4425691;32;20342;-70
2022/06/23 06:45:33;;;;;;;14.80;2.60;;;;;;;19.63;100.00;98897.09;4433673;32;20030;-70
2022/06/23 06:48:01;;;;;;;7.95;2.85;;;;;;;19.68;100.00;98902.44;4432707;32;20085;-70
2022/06/23 06:50:44;;;;;;;2.47;1.90;;;;;;;19.70;100.00;98908.38;4432422;32;20059;-72
2022/06/23 06:53:23;;;;;;;7.87;2.08;;;;;;;19.74;100.00;98909.38;4420561;32;20479;-69
2022/06/23 06:55:58;;;;;;;5.03;2.53;;;;;;;19.74;100.00;98909.38;4417367;32;20091;-68
2022/06/23 06:58:40;;;;;;;3.55;2.00;;;;;;;19.59;100.00;98875.88;4415778;32;20089;-69
2022/06/23 07:01:12;;;;;;;10.48;2.17;;;;;;;19.64;100.00;98876.84;4425783;32;20191;-69
2022/06/23 07:03:43;;;;;;;3.75;2.80;;;;;;;19.89;100.00;98908.19;4433350;32;20053;-69
2022/06/23 07:06:16;;;;;;;9.27;2.03;;;;;;;19.64;100.00;98871.38;4430969;32;20084;-70
2022/06/23 07:08:58;;;;;;;5.32;1.40;;;;;;;19.87;100.00;98913.94;4419964;32;20039;-68
2022/06/23 07:11:35;;;;;;;3.90;1.62;;;;;;;20.01;100.00;98908.41;4417195;32;20444;-69
2022/06/23 07:14:20;;;;;;;2.15;1.60;;;;;;;20.16;100.00;98912.63;4415390;32;20360;-69
2022/06/23 07:16:59;;;;;;;2.78;2.03;;;;;;;20.28;100.00;98912.84;4416883;32;20034;-69
2022/06/23 07:19:29;;;;;;;1.62;1.40;;;;;;;20.40;100.00;98911.41;4415565;32;20038;-72
2022/06/23 07:22:04;;;;;;;2.00;1.87;;;;;;;20.26;100.00;98887.75;4401945;32;20084;-69
2022/06/23 07:24:50;;;;;;;5.60;1.62;;;;;;;20.36;100.00;98888.56;4414941;32;20138;-69
2022/06/23 07:27:58;;;;;;;1.85;1.52;;;;;;;20.60;100.00;98913.56;4415678;32;20076;-71
2022/06/23 07:30:28;;;;;;;1.62;1.55;;;;;;;20.65;100.00;98932.56;4339979;33;20047;-68
2022/06/23 07:33:02;;;;;;;2.40;1.58;;;;;;;20.65;100.00;98924.38;4399870;32;20056;-70
2022/06/23 07:35:39;;;;;;;4.28;1.80;;;;;;;20.56;100.00;98896.16;4416339;32;20058;-68
2022/06/23 07:38:12;;;;;;;4.18;1.65;;;;;;;20.82;100.00;98917.31;4414623;32;20050;-68
2022/06/23 07:40:48;;;;;;;3.33;2.45;;;;;;;20.84;100.00;98929.56;4413322;32;20076;-68
2022/06/23 07:43:23;;;;;;;3.85;2.28;;;;;;;20.80;100.00;98933.25;4414902;32;20321;-69
2022/06/23 07:45:54;;;;;;;3.37;1.70;;;;;;;20.60;100.00;98905.34;4414831;32;20138;-69
2022/06/23 07:48:21;;;;;;;6.55;3.60;;;;;;;20.56;100.00;98901.63;4399413;32;20193;-69
2022/06/23 07:50:47;;;;;;;2.87;2.62;;;;;;;20.76;100.00;98932.25;4414053;32;20391;-68
2022/06/23 07:53:21;;;;;;;4.85;2.12;;;;;;;20.85;100.00;98941.28;4415315;32;20089;-68
2022/06/23 07:55:47;;;;;;;3.28;1.42;;;;;;;20.95;100.00;98949.22;4413522;32;20038;-68
2022/06/23 07:58:22;;;;;;;1.80;1.70;;;;;;;20.89;100.00;98934.06;4410517;32;20082;-72
2022/06/23 08:00:53;;;;;;;4.45;1.40;;;;;;;21.07;100.00;98943.09;4407181;32;20997;-69
2022/06/23 08:03:34;;;;;;;4.60;1.62;;;;;;;21.11;100.00;98937.75;4388901;32;20076;-69
2022/06/23 08:06:06;;;;;;;4.28;1.55;;;;;;;20.97;100.00;98905.88;4400278;32;20081;-72
2022/06/23 08:08:38;;;;;;;2.08;1.95;;;;;;;21.24;100.00;98942.28;4413365;32;20038;-73
2022/06/23 08:14:12;;;;;;;5.37;1.77;;;;;;;21.26;100.00;98945.50;4419089;32;20057;-73
2022/06/23 08:16:50;;;;;;;1.77;1.67;;;;;;;21.36;100.00;98945.19;4414874;32;20072;-72
2022/06/23 08:19:24;;;;;;;2.47;1.80;;;;;;;21.35;100.00;98943.56;4415491;32;20064;-72
2022/06/23 08:21:55;;;;;;;2.53;2.12;;;;;;;21.66;100.00;98953.53;4414361;32;20077;-73
2022/06/23 08:24:23;;;;;;;2.67;1.63;;;;;;;21.73;100.00;98959.34;4412395;32;20575;-73
2022/06/23 08:26:58;;;;;;;1.12;1.10;;;;;;;21.56;100.00;98926.50;4394728;32;20512;-72
2022/06/23 08:29:54;;;;;;;1.67;1.58;;;;;;;21.64;100.00;98961.28;4415635;32;20400;-72
2022/06/23 08:32:21;;;;;;;2.85;1.50;;;;;;;21.58;100.00;98962.56;4414498;32;20406;-73
2022/06/23 08:34:59;;;;;;;2.03;1.58;;;;;;;21.63;100.00;98959.66;4406856;32;20042;-73
2022/06/23 08:37:25;;;;;;;4.28;1.40;;;;;;;21.66;100.00;98959.00;4413256;32;20103;-72
2022/06/23 08:39:58;;;;;;;3.65;1.95;;;;;;;21.70;100.00;98954.50;4414211;32;20097;-73
2022/06/23 08:42:46;;;;;;;1.58;1.40;;;;;;;21.86;100.00;98967.66;4412791;32;20046;-74
2022/06/23 08:45:24;;;;;;;3.25;1.08;;;;;;;21.87;99.09;98956.37;4370773;32;20091;-73
2022/06/23 08:47:55;;;;;;;1.60;1.50;;;;;;;21.88;91.10;98958.00;4413785;32;20042;-73
2022/06/23 08:50:39;;;;;;;2.72;1.30;;;;;;;21.65;94.35;98935.50;4407394;32;20231;-72
2022/06/23 08:53:16;;;;;;;4.70;1.25;;;;;;;21.88;96.70;98958.00;4415975;32;20158;-73
2022/06/23 08:55:53;;;;;;;7.68;1.45;;;;;;;21.76;95.90;98950.47;4412479;32;20038;-73
2022/06/23 08:58:33;;;;;;;1.45;1.23;;;;;;;21.56;85.26;98930.03;4415412;32;20076;-73
2022/06/23 09:01:12;;;;;;;3.72;1.50;;;;;;;21.94;94.35;98975.09;4414940;32;20427;-73
2022/06/23 09:03:43;;;;;;;1.60;1.50;;;;;;;21.70;99.50;98932.59;4417695;32;20042;-73
2022/06/23 09:06:40;;;;;;;3.25;1.62;;;;;;;21.71;100.00;98938.88;4415898;32;20383;-73
2022/06/23 09:09:18;;;;;;;4.62;2.00;;;;;;;21.74;100.00;98933.53;4423268;32;20052;-73
2022/06/23 09:12:08;;;;;;;3.83;1.35;;;;;;;21.99;100.00;98954.94;4411551;32;20043;-73
2022/06/23 09:14:42;;;;;;;1.83;1.48;;;;;;;22.00;100.00;98968.28;4401910;32;20076;-73
2022/06/23 09:17:18;;;;;;;4.22;2.15;;;;;;;22.10;94.47;98967.94;4414095;32;20480;-73
2022/06/23 09:20:12;;;;;;;1.62;1.50;;;;;;;22.20;100.00;98972.25;4415117;32;20050;-73
2022/06/23 09:22:59;;;;;;;1.60;1.50;;;;;;;22.48;100.00;98967.16;4413471;32;20081;-73
2022/06/23 09:25:41;;;;;;;4.03;1.48;;;;;;;22.34;98.88;98938.34;4414129;32;20086;-73
2022/06/23 09:28:20;;;;;;;2.20;1.60;;;;;;;22.77;100.00;98978.44;4414271;32;20438;-73
2022/06/23 09:31:06;;;;;;;4.37;1.75;;;;;;;22.62;100.00;98944.16;4409092;32;20332;-73
2022/06/23 09:33:54;;;;;;;5.80;1.90;;;;;;;22.79;100.00;98971.50;4426041;32;20065;-72
2022/06/23 09:36:28;;;;;;;3.60;1.62;;;;;;;22.83;100.00;98977.94;4422060;32;20108;-73
2022/06/23 09:39:26;;;;;;;4.40;1.50;;;;;;;22.73;100.00;98978.31;4416258;32;20054;-73
2022/06/23 09:42:12;;;;;;;5.65;1.48;;;;;;;22.58;100.00;98956.94;4416134;32;20085;-73
2022/06/23 09:44:47;;;;;;;2.67;1.45;;;;;;;22.46;100.00;98968.62;4429698;32;20046;-73
2022/06/23 09:47:50;;;;;;;1.58;1.50;;;;;;;22.32;96.38;98963.34;4430488;32;20337;-73
2022/06/23 09:50:53;;;;;;;3.58;1.70;;;;;;;22.55;98.62;98979.56;4420082;32;20087;-70
2022/06/23 09:53:57;;;;;;;4.25;1.55;;;;;;;22.42;96.12;98973.16;4412441;32;20078;-70
2022/06/23 09:56:51;;;;;;;3.05;2.15;;;;;;;22.19;99.97;98937.72;4414880;32;20053;-69
2022/06/23 09:59:19;;;;;;;1.85;1.75;;;;;;;22.64;100.00;98970.16;4414097;32;20416;-70
2022/06/23 10:01:56;;;;;;;1.85;1.80;;;;;;;22.40;99.56;98943.31;4428550;32;20042;-69
2022/06/23 10:04:33;;;;;;;4.18;1.62;;;;;;;22.62;100.00;98977.09;4397876;32;20047;-73
2022/06/23 10:07:14;;;;;;;2.30;1.62;;;;;;;22.54;100.00;98975.19;4413291;32;20086;-70
2022/06/23 10:09:43;;;;;;;2.37;1.30;;;;;;;22.32;100.00;98938.66;4415096;32;20431;-69
2022/06/23 10:12:40;;;;;;;3.42;1.85;;;;;;;22.22;100.00;98975.47;4432300;32;20091;-71
2022/06/23 10:15:39;;;;;;;4.93;1.58;;;;;;;22.24;100.00;98969.66;4420392;32;20115;-70
2022/06/23 10:18:05;;;;;;;1.30;1.20;;;;;;;22.45;100.00;98972.50;4416712;32;21013;-70
2022/06/23 10:20:39;;;;;;;1.62;1.52;;;;;;;22.58;100.00;98967.94;4418341;32;20416;-70
2022/06/23 10:23:39;;;;;;;2.47;1.65;;;;;;;22.40;99.98;98948.81;4418279;32;20038;-68
2022/06/23 10:26:24;;;;;;;3.17;2.12;;;;;;;22.89;100.00;98964.81;4415793;32;20425;-69
2022/06/23 10:28:57;;;;;;;2.80;2.05;;;;;;;23.08;100.00;98971.81;4401138;32;20108;-70
2022/06/23 10:31:33;;;;;;;5.47;2.00;;;;;;;23.25;100.00;98970.88;4419778;32;20098;-70
2022/06/23 10:34:44;;;;;;;6.35;1.60;;;;;;;23.48;100.00;98971.34;4414588;32;20045;-69
2022/06/23 10:37:22;;;;;;;7.93;1.60;;;;;;;23.37;96.55;98968.19;4392220;32;20069;-69
2022/06/23 10:39:53;;;;;;;6.05;1.77;;;;;;;23.63;96.03;98969.88;4414991;32;20173;-72
2022/06/23 10:42:36;;;;;;;1.50;1.45;;;;;;;23.77;99.93;98967.66;4417117;32;20058;-70
2022/06/23 10:45:15;;;;;;;2.47;1.60;;;;;;;23.91;91.32;98959.91;4417005;32;20079;-70
2022/06/23 10:48:09;;;;;;;3.45;2.05;;;;;;;23.58;86.04;98925.00;4402952;32;20065;-69
2022/06/23 10:51:04;;;;;;;4.57;1.23;;;;;;;23.79;88.05;98961.81;4417849;32;20496;-69
2022/06/23 10:53:55;;;;;;;1.83;1.73;;;;;;;23.90;85.22;98936.34;4417902;32;20336;-69
2022/06/23 10:56:39;;;;;;;3.55;1.62;;;;;;;24.20;79.67;98958.13;4403836;32;20050;-74
2022/06/23 10:59:16;;;;;;;1.37;1.25;;;;;;;24.31;81.06;98958.50;4417891;32;20050;-69
2022/06/23 11:01:48;;;;;;;2.97;1.60;;;;;;;24.72;76.29;98964.13;4403994;32;20054;-70
2022/06/23 11:04:24;;;;;;;2.58;1.42;;;;;;;25.36;76.43;98965.28;4415711;32;20372;-72
2022/06/23 11:07:12;;;;;;;4.78;2.00;;;;;;;25.96;75.49;98939.69;4417782;32;20499;-70
2022/06/23 11:09:53;;;;;;;4.57;2.20;;;;;;;25.64;70.21;98936.88;4403260;32;20116;-74
2022/06/23 11:13:02;;;;;;;1.87;1.50;;;;;;;25.57;65.17;98940.25;4417034;32;20094;-71
2022/06/23 11:15:33;;;;;;;1.35;1.27;;;;;;;26.77;66.78;98975.22;4417432;32;20115;-69
2022/06/23 11:18:19;;;;;;;2.07;1.37;;;;;;;27.45;74.91;98973.13;4403515;32;20066;-71
2022/06/23 11:20:59;;;;;;;1.50;1.50;;;;;;;27.31;51.08;98941.25;4415511;32;20142;-73
2022/06/23 11:23:44;;;;;;;3.00;1.60;;;;;;;27.37;64.49;98969.44;4417802;32;20378;-70
2022/06/23 11:26:39;;;;;;;1.92;1.67;;;;;;;27.87;59.61;98948.28;4416190;32;20056;-72
2022/06/23 11:29:19;;;;;;;3.53;1.75;;;;;;;28.09;69.76;98959.72;4399275;32;20049;-69
2022/06/23 11:32:13;;;;;;;3.03;1.67;;;;;;;27.95;54.32;98953.94;4400450;32;20039;-73
2022/06/23 11:34:48;;;;;;;6.68;2.17;;;;;;;27.35;64.01;98966.22;4401344;32;20078;-69
2022/06/23 11:37:33;;;;;;;11.07;1.50;;;;;;;26.33;61.54;98973.38;4400042;32;20046;-74
2022/06/23 11:40:08;;;;;;;4.10;1.92;;;;;;;26.95;67.10;98945.22;4402233;32;20486;-69
2022/06/23 11:42:36;;;;;;;1.50;1.48;;;;;;;27.01;63.18;98952.06;4401401;32;20034;-69
2022/06/23 11:45:30;;;;;;;2.50;1.70;;;;;;;27.75;60.39;98953.97;4400514;32;20357;-72
2022/06/23 11:48:34;;;;;;;5.32;1.62;;;;;;;27.91;57.03;98976.78;4401830;32;20065;-69
2022/06/23 11:51:09;;;;;;;1.87;1.75;;;;;;;27.18;59.41;98976.50;4401835;32;20062;-70
2022/06/23 11:53:51;;;;;;;2.15;1.85;;;;;;;27.49;69.67;98974.00;4402133;32;20181;-69
2022/06/23 11:56:21;;;;;;;3.37;2.25;;;;;;;27.17;54.53;98974.94;4373619;32;20381;-70
2022/06/23 11:59:06;;;;;;;2.35;1.70;;;;;;;26.81;55.77;98971.37;4404050;32;20034;-70
2022/06/23 12:01:32;;;;;;;2.03;1.52;;;;;;;27.66;63.72;98975.50;4415278;32;20051;-70
2022/06/23 12:04:13;;;;;;;2.12;1.90;;;;;;;26.71;66.88;98955.38;4416094;32;20038;-71
2022/06/23 12:07:06;;;;;;;1.85;1.75;;;;;;;27.60;66.74;98957.63;4417064;32;20077;-69
2022/06/23 12:09:33;;;;;;;1.70;1.50;;;;;;;26.78;57.59;98952.75;4401294;32;20050;-70
2022/06/23 12:12:01;;;;;;;2.33;1.90;;;;;;;27.50;56.58;98970.88;4402489;32;20932;-69
2022/06/23 12:14:28;;;;;;;4.07;1.77;;;;;;;26.85;58.21;98937.50;4416419;32;20038;-71
2022/06/23 12:17:20;;;;;;;1.87;1.77;;;;;;;26.49;58.79;98972.53;4416299;32;20169;-70
2022/06/23 12:20:02;;;;;;;1.67;1.58;;;;;;;26.83;62.74;98959.97;4416549;32;20058;-70
2022/06/23 12:22:39;;;;;;;1.75;1.65;;;;;;;27.60;56.75;98966.69;4402750;32;20054;-69
2022/06/23 12:25:40;;;;;;;3.28;1.73;;;;;;;26.67;52.33;98937.12;4414592;32;20101;-70
2022/06/23 12:28:49;;;;;;;1.40;1.30;;;;;;;26.18;56.22;98963.13;4368672;32;20043;-70